Meteo Giornale » Osservazioni meteo Stati Uniti (USA) » Norton-San Bern
ore: 14:54 - Osservazioni Meteo Norton-San Bern
Lat. 34° 6' N Lon. 117° 14' W Alt. 353 metri s.l.m.
33 °C
Sereno
Temp. 24 Ore
17 °C
34 °C
Ovest
22.2 Km/h
Dew point 0 °C
Umidità 12 %
Visibilità 10 Km
Il sole sorge alle ore 06:22
Il sole tramonta alle ore 19:14
| Data e Ora | Cielo e Fenomeni | T °C | DP °C | Um. % | Pres. hPa | Vis. km | Vento km/h | |
|---|---|---|---|---|---|---|---|---|
| Oggi h: 14:54 | Sereno | 33 | 0 | 12 | 1014 | 10 | O 22.2 | |
| Oggi h: 13:51 | Sereno | 32 | -3 | 10 | 1014 | 10 | O/SO 7.4 | |
| Oggi h: 12:58 | Sereno | 31 | -3 | 10 | 1015 | 11 | O/SO 7.4 | |
| Oggi h: 11:53 | Sereno | 30 | 4 | 19 | 1016 | 10 | N 5.5 | |
| Oggi h: 10:49 | Sereno | 27 | 6 | 26 | 1016 | 11 | N 0 | |
| Oggi h: 09:51 | Sereno | 25 | 9 | 36 | 1016 | 11 | N 0 | |
| Oggi h: 08:55 | Sereno | 21 | 10 | 49 | 1016 | 11 | N 0 | |
| Oggi h: 07:54 | Sereno | 20 | 6 | 39 | 1016 | 11 | N 0 | |
| Oggi h: 07:00 | Sereno | 17 | 6 | 48 | 1015 | 11 | N 0 | |
| Oggi h: 05:40 | Sereno | 18 | 6 | 45 | 1015 | 10 | N 5.5 | |
| Oggi h: 05:20 | Sereno | 18 | 5 | 42 | 1015 | 10 | N 0 | |
| Oggi h: 05:00 | Sereno | 18 | 5 | 42 | 1015 | 10 | N 0 | |
| Oggi h: 04:40 | Sereno | 18 | 6 | 45 | 1015 | 10 | N 5.5 | |
| Oggi h: 04:20 | Sereno | 19 | 5 | 39 | 1015 | 10 | N 0 | |
| Oggi h: 04:00 | Sereno | 19 | 5 | 39 | 1015 | 10 | N 0 | |
| Oggi h: 03:40 | Sereno | 19 | 4 | 37 | 1015 | 10 | N 0 | |
| Oggi h: 03:20 | Sereno | 19 | 4 | 37 | 1015 | 10 | N 0 | |
| Oggi h: 03:00 | Sereno | 20 | 4 | 34 | 1015 | 10 | N 0 | |
| Oggi h: 02:40 | Sereno | 20 | 5 | 37 | 1015 | 10 | N 0 | |
| Oggi h: 02:20 | Sereno | 20 | 4 | 34 | 1015 | 10 | N 0 | |
| Oggi h: 02:00 | Sereno | 21 | 4 | 32 | 1015 | 10 | N 0 | |
| Oggi h: 01:40 | Sereno | 21 | 3 | 30 | 1015 | 10 | N 0 | |
| Oggi h: 01:20 | Sereno | 21 | 4 | 32 | 1015 | 10 | N 0 | |
| Oggi h: 01:00 | Sereno | 21 | 5 | 35 | 1015 | 10 | N 0 | |
| Oggi h: 00:40 | Sereno | 22 | 5 | 32 | 1015 | 10 | N 0 | |
| Oggi h: 00:20 | Sereno | 21 | 5 | 35 | 1015 | 10 | S/SE 7.4 | |
| Oggi h: 00:01 | Sereno | 23 | 7 | 35 | 1015 | 10 | N 0 | |
| Ieri h: 23:40 | Sereno | 23 | 10 | 43 | 1015 | 10 | N 0 | |
| Ieri h: 23:20 | Sereno | 23 | 12 | 49 | 1015 | 10 | N 5.5 | |
| Ieri h: 23:00 | Sereno | 23 | 12 | 49 | 1015 | 10 | SO 7.4 | |
| Ieri h: 22:40 | Sereno | 23 | 11 | 46 | 1015 | 10 | N 5.5 | |
| Ieri h: 22:20 | Sereno | 23 | 11 | 46 | 1014 | 10 | O 7.4 | |
| Ieri h: 22:00 | Sereno | 24 | 10 | 41 | 1014 | 10 | O/SO 7.4 | |
| Ieri h: 21:40 | Sereno | 24 | 10 | 41 | 1014 | 10 | N 0 | |
| Ieri h: 20:52 | Sereno | 26 | 7 | 29 | 1014 | 10 | N 5.5 | |
| Ieri h: 19:55 | Sereno | 26 | 6 | 27 | 1013 | 10 | O/SO 11.1 | |
| Ieri h: 18:55 | Sereno | 29 | 0 | 15 | 1012 | 10 | O 14.8 | |
| Ieri h: 17:55 | Sereno | 31 | 4 | 18 | 1012 | 10 | O 24 | |
| Ieri h: 16:56 | Sereno | 33 | 6 | 18 | 1011 | 10 | O/SO 24 | |
| Ieri h: 15:55 | Sereno | 34 | 6 | 17 | 1011 | 10 | O/SO 16.7 | |



